Airfield :
LOGIN :

Register | Disclaimer

   EN    FR    IT 

 










Legend :    VFR   Marginal VFR   IFR   Intensive IFR   Very Intensive IFR
Visi :
Ceiling :
>= 8 km
>= 3000ft
5 to 8 km
1000 to 3000 ft
1500m to 5 km
500 to 1000 ft
800 to 1500m
200 to 500 ft
< 800m
< 200 ft
Symbols :   Thunderstorms  Fog  Heavy snow  Heavy precipitations  Wind > 20 kt
SIGMETs :     Misc.  Thunderstorms  Icing  Turbulence  Mountain Waves  Volcanic Ashes







- Airport Elevation : 1504 ft
- IATA code : PNA


LEPP - Noain Pamplona

CURRENT METAR :
  • 222000Z 32003KT 280V010 9999 FEW025 15/11 Q1018

EXPIRED METARs :
  • 221930Z 30003KT 270V330 9999 FEW040 16/12 Q1017
  • 221900Z 33007KT 300V010 9999 FEW040 16/12 Q1017
  • 221830Z 36008KT 9999 FEW040 18/12 Q1016
  • 221800Z 36009KT 9999 FEW040 19/11 Q1016
  • 221730Z 36007KT 330V060 9999 FEW040 20/09 Q1015

TAF TAF LEPP
Valid from the 22 at 15:00 until the 23 at 15:00 UTC


221400Z 2215/2315 30008KT 9999 FEW035 TX25/2315Z TN10/2305Z
PROB40
TEMPO 2215/2218 30015G25KT
PROB40
TEMPO 2215/2224 SCT025TCU
No reported NOTAMs for that airfield.



MET'MAP, your aeronautical weather chart ! - Copyright ORBIFLY December 2007 - Disclaimer

ORBIFLY MET'MAP TEAM :

Programming & Development : Alexandra Zaïnal
Concept & Development : Baudouin d'Aumeries
Co-Development & Prog : Marc-Olivier Méhu
Technical & hardware support : Manuel Goepfert

Contact : metmap@orbifly.com




SOURCES & CREDITS :

   NOAA